sensor_id;sensor_type;location;lat;lon;timestamp;temperature;humidity
64718;DHT22;51148;46.070;14.492;2022-07-21T00:00:58;24.70;52.00
64718;DHT22;51148;46.070;14.492;2022-07-21T00:03:24;24.70;52.00
64718;DHT22;51148;46.070;14.492;2022-07-21T00:05:49;24.70;52.00
64718;DHT22;51148;46.070;14.492;2022-07-21T00:08:15;24.70;52.10
64718;DHT22;51148;46.070;14.492;2022-07-21T00:10:40;24.70;52.20
64718;DHT22;51148;46.070;14.492;2022-07-21T00:13:06;24.70;52.20
64718;DHT22;51148;46.070;14.492;2022-07-21T00:15:31;24.70;52.10
64718;DHT22;51148;46.070;14.492;2022-07-21T00:17:57;24.70;52.10
64718;DHT22;51148;46.070;14.492;2022-07-21T00:20:23;24.70;52.10
64718;DHT22;51148;46.070;14.492;2022-07-21T00:22:49;24.70;52.30
64718;DHT22;51148;46.070;14.492;2022-07-21T00:25:15;24.70;52.40
64718;DHT22;51148;46.070;14.492;2022-07-21T00:27:40;24.70;52.30
64718;DHT22;51148;46.070;14.492;2022-07-21T00:30:07;24.70;52.20
64718;DHT22;51148;46.070;14.492;2022-07-21T00:32:34;24.70;52.30
64718;DHT22;51148;46.070;14.492;2022-07-21T00:34:59;24.60;52.30
64718;DHT22;51148;46.070;14.492;2022-07-21T00:37:25;24.70;52.40
64718;DHT22;51148;46.070;14.492;2022-07-21T00:39:53;24.70;52.50
64718;DHT22;51148;46.070;14.492;2022-07-21T00:44:47;24.60;52.30
64718;DHT22;51148;46.070;14.492;2022-07-21T00:47:12;24.60;52.30
64718;DHT22;51148;46.070;14.492;2022-07-21T00:49:38;24.60;52.50
64718;DHT22;51148;46.070;14.492;2022-07-21T00:52:03;24.60;52.80
64718;DHT22;51148;46.070;14.492;2022-07-21T00:54:29;24.60;53.00
64718;DHT22;51148;46.070;14.492;2022-07-21T00:56:54;24.60;53.00
64718;DHT22;51148;46.070;14.492;2022-07-21T00:59:20;24.60;52.80
64718;DHT22;51148;46.070;14.492;2022-07-21T01:01:45;24.50;52.70
64718;DHT22;51148;46.070;14.492;2022-07-21T01:04:11;24.50;52.70
64718;DHT22;51148;46.070;14.492;2022-07-21T01:06:36;24.50;53.00
64718;DHT22;51148;46.070;14.492;2022-07-21T01:09:02;24.50;53.10
64718;DHT22;51148;46.070;14.492;2022-07-21T01:11:27;24.50;53.10
64718;DHT22;51148;46.070;14.492;2022-07-21T01:13:53;24.50;53.00
64718;DHT22;51148;46.070;14.492;2022-07-21T01:16:19;24.50;53.10
64718;DHT22;51148;46.070;14.492;2022-07-21T01:18:44;24.50;53.20
64718;DHT22;51148;46.070;14.492;2022-07-21T01:21:19;24.50;53.20
64718;DHT22;51148;46.070;14.492;2022-07-21T01:23:50;24.50;53.20
64718;DHT22;51148;46.070;14.492;2022-07-21T01:26:16;24.50;53.20
64718;DHT22;51148;46.070;14.492;2022-07-21T01:28:41;24.40;53.20
64718;DHT22;51148;46.070;14.492;2022-07-21T01:31:07;24.40;53.30
64718;DHT22;51148;46.070;14.492;2022-07-21T01:33:33;24.50;53.40
64718;DHT22;51148;46.070;14.492;2022-07-21T01:35:58;24.50;53.30
64718;DHT22;51148;46.070;14.492;2022-07-21T01:38:24;24.40;53.20
64718;DHT22;51148;46.070;14.492;2022-07-21T01:41:08;24.40;53.30
64718;DHT22;51148;46.070;14.492;2022-07-21T01:43:52;24.40;53.40
64718;DHT22;51148;46.070;14.492;2022-07-21T01:46:17;24.40;53.40
64718;DHT22;51148;46.070;14.492;2022-07-21T01:48:43;24.40;53.40
64718;DHT22;51148;46.070;14.492;2022-07-21T01:51:09;24.40;53.40
64718;DHT22;51148;46.070;14.492;2022-07-21T01:53:35;24.40;53.30
64718;DHT22;51148;46.070;14.492;2022-07-21T01:56:00;24.40;53.20
64718;DHT22;51148;46.070;14.492;2022-07-21T01:58:26;24.40;53.30
64718;DHT22;51148;46.070;14.492;2022-07-21T02:00:51;24.40;53.20
64718;DHT22;51148;46.070;14.492;2022-07-21T02:03:17;24.30;53.20
64718;DHT22;51148;46.070;14.492;2022-07-21T02:05:42;24.40;53.30
64718;DHT22;51148;46.070;14.492;2022-07-21T02:08:07;24.30;53.20
64718;DHT22;51148;46.070;14.492;2022-07-21T02:10:33;24.30;53.10
64718;DHT22;51148;46.070;14.492;2022-07-21T02:12:59;24.30;53.20
64718;DHT22;51148;46.070;14.492;2022-07-21T02:15:24;24.30;53.20
64718;DHT22;51148;46.070;14.492;2022-07-21T02:17:49;24.30;53.30
64718;DHT22;51148;46.070;14.492;2022-07-21T02:20:15;24.30;53.20
64718;DHT22;51148;46.070;14.492;2022-07-21T02:22:41;24.40;53.30
64718;DHT22;51148;46.070;14.492;2022-07-21T02:25:10;24.40;53.30
64718;DHT22;51148;46.070;14.492;2022-07-21T02:27:36;24.40;53.20
64718;DHT22;51148;46.070;14.492;2022-07-21T02:30:01;24.30;53.20
64718;DHT22;51148;46.070;14.492;2022-07-21T02:32:27;24.30;53.10
64718;DHT22;51148;46.070;14.492;2022-07-21T02:34:53;24.30;53.30
64718;DHT22;51148;46.070;14.492;2022-07-21T02:37:18;24.30;53.20
64718;DHT22;51148;46.070;14.492;2022-07-21T02:39:43;24.30;53.20
64718;DHT22;51148;46.070;14.492;2022-07-21T02:42:09;24.30;53.20
64718;DHT22;51148;46.070;14.492;2022-07-21T02:44:34;24.30;53.40
64718;DHT22;51148;46.070;14.492;2022-07-21T02:47:01;24.30;53.40
64718;DHT22;51148;46.070;14.492;2022-07-21T02:49:27;24.30;53.40
64718;DHT22;51148;46.070;14.492;2022-07-21T02:51:53;24.30;53.20
64718;DHT22;51148;46.070;14.492;2022-07-21T02:54:18;24.30;53.20
64718;DHT22;51148;46.070;14.492;2022-07-21T02:56:43;24.30;53.20
64718;DHT22;51148;46.070;14.492;2022-07-21T02:59:09;24.30;53.10
64718;DHT22;51148;46.070;14.492;2022-07-21T03:01:34;24.20;53.10
64718;DHT22;51148;46.070;14.492;2022-07-21T03:04:00;24.20;53.00
64718;DHT22;51148;46.070;14.492;2022-07-21T03:06:25;24.20;53.00
64718;DHT22;51148;46.070;14.492;2022-07-21T03:08:51;24.20;53.00
64718;DHT22;51148;46.070;14.492;2022-07-21T03:11:16;24.20;53.10
64718;DHT22;51148;46.070;14.492;2022-07-21T03:13:42;24.20;53.10
64718;DHT22;51148;46.070;14.492;2022-07-21T03:16:07;24.20;53.00
64718;DHT22;51148;46.070;14.492;2022-07-21T03:18:33;24.20;52.90
64718;DHT22;51148;46.070;14.492;2022-07-21T03:21:00;24.20;52.90
64718;DHT22;51148;46.070;14.492;2022-07-21T03:23:25;24.10;52.80
64718;DHT22;51148;46.070;14.492;2022-07-21T03:25:51;24.10;52.80
64718;DHT22;51148;46.070;14.492;2022-07-21T03:28:16;24.10;53.00
64718;DHT22;51148;46.070;14.492;2022-07-21T03:30:42;24.10;53.20
64718;DHT22;51148;46.070;14.492;2022-07-21T03:33:07;24.20;53.20
64718;DHT22;51148;46.070;14.492;2022-07-21T03:35:33;24.20;53.10
64718;DHT22;51148;46.070;14.492;2022-07-21T03:38:01;24.20;53.10
64718;DHT22;51148;46.070;14.492;2022-07-21T03:40:31;24.20;53.00
64718;DHT22;51148;46.070;14.492;2022-07-21T03:42:58;24.10;52.90
64718;DHT22;51148;46.070;14.492;2022-07-21T03:45:24;24.10;53.00
64718;DHT22;51148;46.070;14.492;2022-07-21T03:47:50;24.10;53.80
64718;DHT22;51148;46.070;14.492;2022-07-21T03:50:15;24.10;53.20
64718;DHT22;51148;46.070;14.492;2022-07-21T03:52:44;24.10;53.30
64718;DHT22;51148;46.070;14.492;2022-07-21T03:55:09;24.10;53.40
64718;DHT22;51148;46.070;14.492;2022-07-21T03:57:39;24.20;53.40
64718;DHT22;51148;46.070;14.492;2022-07-21T04:00:06;24.20;53.40
64718;DHT22;51148;46.070;14.492;2022-07-21T04:02:32;24.10;53.30
64718;DHT22;51148;46.070;14.492;2022-07-21T04:04:57;24.10;53.20
64718;DHT22;51148;46.070;14.492;2022-07-21T04:07:23;24.10;53.40
64718;DHT22;51148;46.070;14.492;2022-07-21T04:09:48;24.10;53.30
64718;DHT22;51148;46.070;14.492;2022-07-21T04:12:14;24.10;53.30
64718;DHT22;51148;46.070;14.492;2022-07-21T04:14:39;24.10;53.50
64718;DHT22;51148;46.070;14.492;2022-07-21T04:17:05;24.10;53.70
64718;DHT22;51148;46.070;14.492;2022-07-21T04:19:30;24.10;53.70
64718;DHT22;51148;46.070;14.492;2022-07-21T04:21:57;24.10;53.70
64718;DHT22;51148;46.070;14.492;2022-07-21T04:24:22;24.10;53.70
64718;DHT22;51148;46.070;14.492;2022-07-21T04:26:48;24.10;53.80
64718;DHT22;51148;46.070;14.492;2022-07-21T04:29:13;24.10;53.80
64718;DHT22;51148;46.070;14.492;2022-07-21T04:31:39;24.10;53.70
64718;DHT22;51148;46.070;14.492;2022-07-21T04:34:04;24.00;53.50
64718;DHT22;51148;46.070;14.492;2022-07-21T04:36:29;24.00;53.50
64718;DHT22;51148;46.070;14.492;2022-07-21T04:38:55;24.00;53.40
64718;DHT22;51148;46.070;14.492;2022-07-21T04:41:20;24.00;53.50
64718;DHT22;51148;46.070;14.492;2022-07-21T04:43:46;24.00;53.50
64718;DHT22;51148;46.070;14.492;2022-07-21T04:46:11;24.00;53.50
64718;DHT22;51148;46.070;14.492;2022-07-21T04:48:37;24.00;53.50
64718;DHT22;51148;46.070;14.492;2022-07-21T04:51:02;24.00;53.50
64718;DHT22;51148;46.070;14.492;2022-07-21T04:53:28;23.90;53.50
64718;DHT22;51148;46.070;14.492;2022-07-21T04:55:53;24.00;53.60
64718;DHT22;51148;46.070;14.492;2022-07-21T04:58:19;24.00;53.50
64718;DHT22;51148;46.070;14.492;2022-07-21T05:00:44;24.00;53.60
64718;DHT22;51148;46.070;14.492;2022-07-21T05:03:10;24.00;53.50
64718;DHT22;51148;46.070;14.492;2022-07-21T05:05:37;23.90;53.40
64718;DHT22;51148;46.070;14.492;2022-07-21T05:08:03;23.80;53.70
64718;DHT22;51148;46.070;14.492;2022-07-21T05:10:28;23.70;53.60
64718;DHT22;51148;46.070;14.492;2022-07-21T05:12:54;23.60;53.60
64718;DHT22;51148;46.070;14.492;2022-07-21T05:15:19;23.50;53.80
64718;DHT22;51148;46.070;14.492;2022-07-21T05:17:45;23.60;53.90
64718;DHT22;51148;46.070;14.492;2022-07-21T05:20:11;23.60;53.90
64718;DHT22;51148;46.070;14.492;2022-07-21T05:22:37;23.60;54.10
64718;DHT22;51148;46.070;14.492;2022-07-21T05:25:03;23.50;54.10
64718;DHT22;51148;46.070;14.492;2022-07-21T05:27:28;23.40;54.20
64718;DHT22;51148;46.070;14.492;2022-07-21T05:29:54;23.50;54.30
64718;DHT22;51148;46.070;14.492;2022-07-21T05:32:20;23.50;54.30
64718;DHT22;51148;46.070;14.492;2022-07-21T05:34:45;23.50;54.60
64718;DHT22;51148;46.070;14.492;2022-07-21T05:37:11;23.50;54.90
64718;DHT22;51148;46.070;14.492;2022-07-21T05:39:36;23.50;54.80
64718;DHT22;51148;46.070;14.492;2022-07-21T05:42:02;23.50;54.80
64718;DHT22;51148;46.070;14.492;2022-07-21T05:44:27;23.60;54.50
64718;DHT22;51148;46.070;14.492;2022-07-21T05:46:53;23.60;54.50
64718;DHT22;51148;46.070;14.492;2022-07-21T05:49:18;23.60;54.80
64718;DHT22;51148;46.070;14.492;2022-07-21T05:51:44;23.60;54.10
64718;DHT22;51148;46.070;14.492;2022-07-21T05:54:09;23.70;54.60
64718;DHT22;51148;46.070;14.492;2022-07-21T05:56:35;23.60;54.50
64718;DHT22;51148;46.070;14.492;2022-07-21T05:59:00;23.70;54.50
64718;DHT22;51148;46.070;14.492;2022-07-21T06:01:26;23.80;54.20
64718;DHT22;51148;46.070;14.492;2022-07-21T06:03:51;23.80;54.20
64718;DHT22;51148;46.070;14.492;2022-07-21T06:06:18;23.80;54.00
64718;DHT22;51148;46.070;14.492;2022-07-21T06:08:44;23.70;54.00
64718;DHT22;51148;46.070;14.492;2022-07-21T06:11:11;23.80;54.00
64718;DHT22;51148;46.070;14.492;2022-07-21T06:13:37;23.70;54.00
64718;DHT22;51148;46.070;14.492;2022-07-21T06:16:03;23.80;53.80
64718;DHT22;51148;46.070;14.492;2022-07-21T06:18:28;23.90;53.90
64718;DHT22;51148;46.070;14.492;2022-07-21T06:20:54;23.90;53.90
64718;DHT22;51148;46.070;14.492;2022-07-21T06:26:18;23.90;53.50
64718;DHT22;51148;46.070;14.492;2022-07-21T06:28:43;24.00;53.80
64718;DHT22;51148;46.070;14.492;2022-07-21T06:31:09;24.00;53.70
64718;DHT22;51148;46.070;14.492;2022-07-21T06:33:34;24.00;53.40
64718;DHT22;51148;46.070;14.492;2022-07-21T06:36:00;24.10;53.00
64718;DHT22;51148;46.070;14.492;2022-07-21T06:38:25;24.10;53.00
64718;DHT22;51148;46.070;14.492;2022-07-21T06:40:51;24.10;53.10
64718;DHT22;51148;46.070;14.492;2022-07-21T06:43:16;24.10;52.80
64718;DHT22;51148;46.070;14.492;2022-07-21T06:45:42;24.10;52.70
64718;DHT22;51148;46.070;14.492;2022-07-21T06:48:07;24.20;52.60
64718;DHT22;51148;46.070;14.492;2022-07-21T06:50:33;24.10;52.70
64718;DHT22;51148;46.070;14.492;2022-07-21T06:52:59;24.10;52.50
64718;DHT22;51148;46.070;14.492;2022-07-21T06:55:25;24.10;52.50
64718;DHT22;51148;46.070;14.492;2022-07-21T06:57:50;24.20;52.60
64718;DHT22;51148;46.070;14.492;2022-07-21T07:00:16;24.20;52.80
64718;DHT22;51148;46.070;14.492;2022-07-21T07:02:42;24.20;52.80
64718;DHT22;51148;46.070;14.492;2022-07-21T07:05:07;24.20;53.40
64718;DHT22;51148;46.070;14.492;2022-07-21T07:07:33;24.20;52.40
64718;DHT22;51148;46.070;14.492;2022-07-21T07:09:58;24.20;52.40
64718;DHT22;51148;46.070;14.492;2022-07-21T07:12:24;24.20;52.40
64718;DHT22;51148;46.070;14.492;2022-07-21T07:14:50;24.20;52.50
64718;DHT22;51148;46.070;14.492;2022-07-21T07:17:16;24.30;52.90
64718;DHT22;51148;46.070;14.492;2022-07-21T07:19:44;24.30;52.60
64718;DHT22;51148;46.070;14.492;2022-07-21T07:22:09;24.30;52.50
64718;DHT22;51148;46.070;14.492;2022-07-21T07:24:35;24.40;53.00
64718;DHT22;51148;46.070;14.492;2022-07-21T07:27:00;24.40;54.00
64718;DHT22;51148;46.070;14.492;2022-07-21T07:29:26;24.40;53.90
64718;DHT22;51148;46.070;14.492;2022-07-21T07:31:53;24.50;53.90
64718;DHT22;51148;46.070;14.492;2022-07-21T07:34:18;24.50;54.10
64718;DHT22;51148;46.070;14.492;2022-07-21T07:36:44;24.60;53.70
64718;DHT22;51148;46.070;14.492;2022-07-21T07:39:09;24.60;55.00
64718;DHT22;51148;46.070;14.492;2022-07-21T07:41:36;24.60;54.60
64718;DHT22;51148;46.070;14.492;2022-07-21T07:44:02;24.70;54.40
64718;DHT22;51148;46.070;14.492;2022-07-21T07:46:27;24.70;54.70
64718;DHT22;51148;46.070;14.492;2022-07-21T07:48:53;24.80;56.30
64718;DHT22;51148;46.070;14.492;2022-07-21T07:51:18;24.90;55.90
64718;DHT22;51148;46.070;14.492;2022-07-21T07:53:44;25.00;55.40
64718;DHT22;51148;46.070;14.492;2022-07-21T07:56:09;25.00;55.90
64718;DHT22;51148;46.070;14.492;2022-07-21T07:58:35;25.10;55.40
64718;DHT22;51148;46.070;14.492;2022-07-21T08:01:00;25.10;55.50
64718;DHT22;51148;46.070;14.492;2022-07-21T08:03:26;25.10;55.80
64718;DHT22;51148;46.070;14.492;2022-07-21T08:05:55;25.10;55.80
64718;DHT22;51148;46.070;14.492;2022-07-21T08:08:21;25.10;55.20
64718;DHT22;51148;46.070;14.492;2022-07-21T08:10:47;25.10;55.10
64718;DHT22;51148;46.070;14.492;2022-07-21T08:13:13;25.10;55.00
64718;DHT22;51148;46.070;14.492;2022-07-21T08:15:40;25.10;55.00
64718;DHT22;51148;46.070;14.492;2022-07-21T08:18:06;25.10;56.30
64718;DHT22;51148;46.070;14.492;2022-07-21T08:20:32;25.10;55.60
64718;DHT22;51148;46.070;14.492;2022-07-21T08:22:57;25.10;55.70
64718;DHT22;51148;46.070;14.492;2022-07-21T08:25:23;25.10;55.60
64718;DHT22;51148;46.070;14.492;2022-07-21T08:27:48;25.10;55.60
64718;DHT22;51148;46.070;14.492;2022-07-21T08:30:14;25.00;55.60
64718;DHT22;51148;46.070;14.492;2022-07-21T08:32:39;25.00;55.70
64718;DHT22;51148;46.070;14.492;2022-07-21T08:35:05;25.00;55.30
64718;DHT22;51148;46.070;14.492;2022-07-21T08:37:40;25.00;56.10
64718;DHT22;51148;46.070;14.492;2022-07-21T08:40:07;25.10;55.80
64718;DHT22;51148;46.070;14.492;2022-07-21T08:42:33;25.10;55.60
64718;DHT22;51148;46.070;14.492;2022-07-21T08:44:58;25.20;56.00
64718;DHT22;51148;46.070;14.492;2022-07-21T08:47:24;25.20;55.30
64718;DHT22;51148;46.070;14.492;2022-07-21T08:49:50;25.20;55.10
64718;DHT22;51148;46.070;14.492;2022-07-21T08:52:16;25.20;55.10
64718;DHT22;51148;46.070;14.492;2022-07-21T08:54:43;25.30;55.50
64718;DHT22;51148;46.070;14.492;2022-07-21T08:57:09;25.30;54.90
64718;DHT22;51148;46.070;14.492;2022-07-21T08:59:34;25.30;55.00
64718;DHT22;51148;46.070;14.492;2022-07-21T09:02:00;25.30;55.20
64718;DHT22;51148;46.070;14.492;2022-07-21T09:04:27;25.30;54.90
64718;DHT22;51148;46.070;14.492;2022-07-21T09:06:57;25.30;55.00
64718;DHT22;51148;46.070;14.492;2022-07-21T09:09:23;25.30;54.80
64718;DHT22;51148;46.070;14.492;2022-07-21T09:11:49;25.30;54.80
64718;DHT22;51148;46.070;14.492;2022-07-21T09:14:15;25.40;55.00
64718;DHT22;51148;46.070;14.492;2022-07-21T09:16:45;25.40;54.90
64718;DHT22;51148;46.070;14.492;2022-07-21T09:19:21;25.40;55.00
64718;DHT22;51148;46.070;14.492;2022-07-21T09:21:47;25.40;55.00
64718;DHT22;51148;46.070;14.492;2022-07-21T09:24:29;25.40;55.00
64718;DHT22;51148;46.070;14.492;2022-07-21T09:29:23;25.40;54.90
64718;DHT22;51148;46.070;14.492;2022-07-21T09:31:48;25.40;55.30
64718;DHT22;51148;46.070;14.492;2022-07-21T09:34:14;25.40;54.90
64718;DHT22;51148;46.070;14.492;2022-07-21T09:36:53;25.40;55.40
64718;DHT22;51148;46.070;14.492;2022-07-21T09:39:19;25.40;55.30
64718;DHT22;51148;46.070;14.492;2022-07-21T09:42:14;25.50;55.00
64718;DHT22;51148;46.070;14.492;2022-07-21T09:44:44;25.50;55.00
64718;DHT22;51148;46.070;14.492;2022-07-21T09:47:14;25.50;54.90
64718;DHT22;51148;46.070;14.492;2022-07-21T09:49:40;25.50;55.00
64718;DHT22;51148;46.070;14.492;2022-07-21T09:52:28;25.50;54.90
64718;DHT22;51148;46.070;14.492;2022-07-21T09:54:52;25.50;55.70
64718;DHT22;51148;46.070;14.492;2022-07-21T09:57:18;25.50;55.00
64718;DHT22;51148;46.070;14.492;2022-07-21T09:59:44;25.50;54.90
64718;DHT22;51148;46.070;14.492;2022-07-21T10:02:11;25.50;55.00
64718;DHT22;51148;46.070;14.492;2022-07-21T10:04:39;25.50;55.10
64718;DHT22;51148;46.070;14.492;2022-07-21T10:07:05;25.50;55.30
64718;DHT22;51148;46.070;14.492;2022-07-21T10:09:31;25.50;55.40
64718;DHT22;51148;46.070;14.492;2022-07-21T10:11:56;25.50;55.20
64718;DHT22;51148;46.070;14.492;2022-07-21T10:14:22;25.50;55.00
64718;DHT22;51148;46.070;14.492;2022-07-21T10:16:47;25.50;55.00
64718;DHT22;51148;46.070;14.492;2022-07-21T10:19:14;25.50;55.10
64718;DHT22;51148;46.070;14.492;2022-07-21T10:24:11;25.50;55.50
64718;DHT22;51148;46.070;14.492;2022-07-21T10:26:37;25.50;55.50
64718;DHT22;51148;46.070;14.492;2022-07-21T10:29:03;25.50;55.60
64718;DHT22;51148;46.070;14.492;2022-07-21T10:31:28;25.50;55.60
64718;DHT22;51148;46.070;14.492;2022-07-21T10:33:55;25.60;55.60
64718;DHT22;51148;46.070;14.492;2022-07-21T10:44:02;25.60;55.90
64718;DHT22;51148;46.070;14.492;2022-07-21T10:46:31;25.60;56.10
64718;DHT22;51148;46.070;14.492;2022-07-21T10:48:57;25.70;56.40
64718;DHT22;51148;46.070;14.492;2022-07-21T10:51:22;25.70;55.60
64718;DHT22;51148;46.070;14.492;2022-07-21T10:54:14;25.60;56.50
64718;DHT22;51148;46.070;14.492;2022-07-21T10:56:34;25.70;56.50
64718;DHT22;51148;46.070;14.492;2022-07-21T10:59:00;25.70;56.20
64718;DHT22;51148;46.070;14.492;2022-07-21T11:01:25;25.70;56.70
64718;DHT22;51148;46.070;14.492;2022-07-21T11:06:32;25.70;56.10
64718;DHT22;51148;46.070;14.492;2022-07-21T11:13:59;25.70;57.40
64718;DHT22;51148;46.070;14.492;2022-07-21T11:21:50;25.80;56.70
64718;DHT22;51148;46.070;14.492;2022-07-21T11:24:19;25.90;56.80
64718;DHT22;51148;46.070;14.492;2022-07-21T11:26:44;25.90;56.40
64718;DHT22;51148;46.070;14.492;2022-07-21T11:29:10;25.90;56.50
64718;DHT22;51148;46.070;14.492;2022-07-21T11:31:45;25.90;56.50
64718;DHT22;51148;46.070;14.492;2022-07-21T11:34:11;25.90;58.10
64718;DHT22;51148;46.070;14.492;2022-07-21T11:36:37;25.90;57.10
64718;DHT22;51148;46.070;14.492;2022-07-21T11:39:06;25.90;57.30
64718;DHT22;51148;46.070;14.492;2022-07-21T11:41:33;25.90;56.90
64718;DHT22;51148;46.070;14.492;2022-07-21T11:43:59;25.90;57.00
64718;DHT22;51148;46.070;14.492;2022-07-21T11:46:24;26.00;57.10
64718;DHT22;51148;46.070;14.492;2022-07-21T11:49:00;26.00;57.40
64718;DHT22;51148;46.070;14.492;2022-07-21T11:51:25;26.00;57.50
64718;DHT22;51148;46.070;14.492;2022-07-21T11:53:51;26.00;57.60
64718;DHT22;51148;46.070;14.492;2022-07-21T11:56:16;26.00;57.60
64718;DHT22;51148;46.070;14.492;2022-07-21T11:58:42;26.00;58.80
64718;DHT22;51148;46.070;14.492;2022-07-21T12:01:08;26.00;57.80
64718;DHT22;51148;46.070;14.492;2022-07-21T12:03:34;26.00;57.60
64718;DHT22;51148;46.070;14.492;2022-07-21T12:06:11;26.00;57.50
64718;DHT22;51148;46.070;14.492;2022-07-21T12:08:37;26.00;57.60
64718;DHT22;51148;46.070;14.492;2022-07-21T12:11:06;26.00;57.60
64718;DHT22;51148;46.070;14.492;2022-07-21T12:16:16;26.00;58.90
64718;DHT22;51148;46.070;14.492;2022-07-21T12:18:42;26.00;58.70
64718;DHT22;51148;46.070;14.492;2022-07-21T12:21:07;26.00;58.50
64718;DHT22;51148;46.070;14.492;2022-07-21T12:23:33;26.00;59.50
64718;DHT22;51148;46.070;14.492;2022-07-21T12:25:59;26.00;59.20
64718;DHT22;51148;46.070;14.492;2022-07-21T12:28:41;26.00;59.10
64718;DHT22;51148;46.070;14.492;2022-07-21T12:31:11;25.90;59.00
64718;DHT22;51148;46.070;14.492;2022-07-21T12:33:37;25.90;59.20
64718;DHT22;51148;46.070;14.492;2022-07-21T12:36:04;25.90;59.10
64718;DHT22;51148;46.070;14.492;2022-07-21T12:41:05;25.90;59.20
64718;DHT22;51148;46.070;14.492;2022-07-21T12:43:31;25.90;59.10
64718;DHT22;51148;46.070;14.492;2022-07-21T12:45:57;25.90;58.90
64718;DHT22;51148;46.070;14.492;2022-07-21T12:48:24;25.90;58.90
64718;DHT22;51148;46.070;14.492;2022-07-21T12:51:00;25.90;58.70
64718;DHT22;51148;46.070;14.492;2022-07-21T12:53:26;25.90;58.70
64718;DHT22;51148;46.070;14.492;2022-07-21T12:55:52;25.90;58.60
64718;DHT22;51148;46.070;14.492;2022-07-21T12:58:17;26.00;58.80
64718;DHT22;51148;46.070;14.492;2022-07-21T13:00:43;26.00;58.70
64718;DHT22;51148;46.070;14.492;2022-07-21T13:03:08;26.00;58.70
64718;DHT22;51148;46.070;14.492;2022-07-21T13:05:34;26.00;58.60
64718;DHT22;51148;46.070;14.492;2022-07-21T13:07:59;26.00;58.50
64718;DHT22;51148;46.070;14.492;2022-07-21T13:10:25;26.00;58.50
64718;DHT22;51148;46.070;14.492;2022-07-21T13:12:50;26.00;58.20
64718;DHT22;51148;46.070;14.492;2022-07-21T13:15:16;26.00;58.20
64718;DHT22;51148;46.070;14.492;2022-07-21T13:17:42;26.00;58.00
64718;DHT22;51148;46.070;14.492;2022-07-21T13:20:07;26.00;58.40
64718;DHT22;51148;46.070;14.492;2022-07-21T13:22:33;25.90;58.40
64718;DHT22;51148;46.070;14.492;2022-07-21T13:24:58;25.90;58.40
64718;DHT22;51148;46.070;14.492;2022-07-21T13:27:24;25.90;58.50
64718;DHT22;51148;46.070;14.492;2022-07-21T13:29:49;25.90;58.50
64718;DHT22;51148;46.070;14.492;2022-07-21T13:32:15;26.00;58.40
64718;DHT22;51148;46.070;14.492;2022-07-21T13:34:40;26.00;58.70
64718;DHT22;51148;46.070;14.492;2022-07-21T13:37:06;26.00;58.10
64718;DHT22;51148;46.070;14.492;2022-07-21T13:39:39;26.00;58.10
64718;DHT22;51148;46.070;14.492;2022-07-21T13:42:06;26.00;58.20
64718;DHT22;51148;46.070;14.492;2022-07-21T13:44:32;25.90;58.40
64718;DHT22;51148;46.070;14.492;2022-07-21T13:46:58;26.00;58.30
64718;DHT22;51148;46.070;14.492;2022-07-21T13:49:23;26.00;58.20
64718;DHT22;51148;46.070;14.492;2022-07-21T13:51:49;25.90;58.10
64718;DHT22;51148;46.070;14.492;2022-07-21T13:54:14;26.00;58.30
64718;DHT22;51148;46.070;14.492;2022-07-21T13:56:39;25.90;58.20
64718;DHT22;51148;46.070;14.492;2022-07-21T13:59:05;26.00;58.40
64718;DHT22;51148;46.070;14.492;2022-07-21T14:01:30;26.00;58.40
64718;DHT22;51148;46.070;14.492;2022-07-21T14:03:56;26.00;57.70
64718;DHT22;51148;46.070;14.492;2022-07-21T14:06:21;26.00;58.10
64718;DHT22;51148;46.070;14.492;2022-07-21T14:08:47;26.00;57.10
64718;DHT22;51148;46.070;14.492;2022-07-21T14:11:12;25.90;56.20
64718;DHT22;51148;46.070;14.492;2022-07-21T14:13:39;25.80;56.20
64718;DHT22;51148;46.070;14.492;2022-07-21T14:16:04;25.80;56.50
64718;DHT22;51148;46.070;14.492;2022-07-21T14:18:30;25.90;56.70
64718;DHT22;51148;46.070;14.492;2022-07-21T14:20:56;25.90;57.40
64718;DHT22;51148;46.070;14.492;2022-07-21T14:23:22;26.20;57.70
64718;DHT22;51148;46.070;14.492;2022-07-21T14:25:48;26.20;57.20
64718;DHT22;51148;46.070;14.492;2022-07-21T14:28:13;26.30;57.10
64718;DHT22;51148;46.070;14.492;2022-07-21T14:30:39;26.40;56.70
64718;DHT22;51148;46.070;14.492;2022-07-21T14:33:04;26.40;62.80
64718;DHT22;51148;46.070;14.492;2022-07-21T14:35:30;26.20;62.90
64718;DHT22;51148;46.070;14.492;2022-07-21T14:37:55;26.10;60.60
64718;DHT22;51148;46.070;14.492;2022-07-21T14:40:21;26.00;59.90
64718;DHT22;51148;46.070;14.492;2022-07-21T14:42:47;25.90;59.60
64718;DHT22;51148;46.070;14.492;2022-07-21T14:45:13;25.90;59.20
64718;DHT22;51148;46.070;14.492;2022-07-21T14:47:39;25.90;58.60
64718;DHT22;51148;46.070;14.492;2022-07-21T14:50:05;25.90;58.40
64718;DHT22;51148;46.070;14.492;2022-07-21T14:52:30;25.90;58.00
64718;DHT22;51148;46.070;14.492;2022-07-21T14:54:56;25.90;58.40
64718;DHT22;51148;46.070;14.492;2022-07-21T14:57:21;25.90;57.90
64718;DHT22;51148;46.070;14.492;2022-07-21T14:59:47;25.90;58.20
64718;DHT22;51148;46.070;14.492;2022-07-21T15:02:12;25.90;59.00
64718;DHT22;51148;46.070;14.492;2022-07-21T15:04:38;25.80;59.20
64718;DHT22;51148;46.070;14.492;2022-07-21T15:07:03;25.80;59.20
64718;DHT22;51148;46.070;14.492;2022-07-21T15:09:29;25.80;59.10
64718;DHT22;51148;46.070;14.492;2022-07-21T15:11:54;25.80;59.10
64718;DHT22;51148;46.070;14.492;2022-07-21T15:14:20;25.90;59.20
64718;DHT22;51148;46.070;14.492;2022-07-21T15:16:46;25.90;59.50
64718;DHT22;51148;46.070;14.492;2022-07-21T15:19:11;26.00;58.40
64718;DHT22;51148;46.070;14.492;2022-07-21T15:21:37;26.00;58.10
64718;DHT22;51148;46.070;14.492;2022-07-21T15:24:02;26.00;58.10
64718;DHT22;51148;46.070;14.492;2022-07-21T15:26:28;26.00;58.10
64718;DHT22;51148;46.070;14.492;2022-07-21T15:28:53;26.10;57.90
64718;DHT22;51148;46.070;14.492;2022-07-21T15:31:19;26.00;57.90
64718;DHT22;51148;46.070;14.492;2022-07-21T15:33:44;26.10;57.90
64718;DHT22;51148;46.070;14.492;2022-07-21T15:36:10;26.00;57.90
64718;DHT22;51148;46.070;14.492;2022-07-21T15:38:35;26.10;58.00
64718;DHT22;51148;46.070;14.492;2022-07-21T15:41:01;26.10;57.80
64718;DHT22;51148;46.070;14.492;2022-07-21T15:43:28;26.10;57.60
64718;DHT22;51148;46.070;14.492;2022-07-21T15:45:54;26.10;57.60